Time;durP1;ratioP1;P1;durP2;ratioP2;P2;SDS_P1;SDS_P2;PMS_P1;PMS_P2;Temp;Humidity;BMP_temperature;BMP_pressure;BME280_temperature;BME280_humidity;BME280_pressure;Samples;Min_cycle;Max_cycle;Signal;HPM_P1;HPM_P2
2021/04/06 00:00:45;;;;;;;2.13;1.47;;;-0.10;99.90;;;;;;5091529;28;20437;-70
2021/04/06 00:03:15;;;;;;;3.23;1.30;;;-0.10;99.90;;;;;;5090241;28;20860;-70
2021/04/06 00:05:43;;;;;;;3.20;1.50;;;-0.10;99.90;;;;;;5091878;28;20493;-70
2021/04/06 00:08:09;;;;;;;5.40;2.00;;;-0.20;99.90;;;;;;5091698;28;20418;-69
2021/04/06 00:10:44;;;;;;;2.10;1.60;;;-0.20;99.90;;;;;;5091479;28;20461;-69
2021/04/06 00:13:10;;;;;;;1.93;1.40;;;-0.20;99.90;;;;;;5091623;28;20514;-69
2021/04/06 00:15:37;;;;;;;5.93;2.03;;;-0.30;99.90;;;;;;5091478;28;20402;-70
2021/04/06 00:18:05;;;;;;;3.40;2.00;;;-0.30;99.90;;;;;;5091689;28;20457;-70
2021/04/06 00:20:33;;;;;;;3.53;2.07;;;-0.30;99.90;;;;;;5090343;28;20446;-69
2021/04/06 00:23:01;;;;;;;7.93;1.93;;;-0.30;99.90;;;;;;5091404;28;20471;-69
2021/04/06 00:25:31;;;;;;;3.33;1.90;;;-0.30;99.90;;;;;;5091346;28;20417;-69
2021/04/06 00:27:57;;;;;;;3.27;1.97;;;-0.30;99.90;;;;;;5091310;28;20418;-70
2021/04/06 00:30:31;;;;;;;4.90;2.07;;;-0.30;99.90;;;;;;5090931;28;20434;-69
2021/04/06 00:33:13;;;;;;;2.47;2.27;;;-0.30;99.90;;;;;;5091204;28;20458;-70
2021/04/06 00:35:39;;;;;;;4.20;2.27;;;-0.40;99.90;;;;;;5091095;28;20417;-70
2021/04/06 00:38:08;;;;;;;2.40;2.20;;;-0.40;99.90;;;;;;5091191;28;20406;-70
2021/04/06 00:40:45;;;;;;;5.70;2.00;;;-0.40;99.90;;;;;;5091242;28;20529;-69
2021/04/06 00:43:11;;;;;;;3.90;2.40;;;-0.50;99.90;;;;;;5091402;28;20776;-69
2021/04/06 00:45:41;;;;;;;5.60;2.70;;;-0.50;99.90;;;;;;5091056;28;20438;-70
2021/04/06 00:48:12;;;;;;;3.20;2.10;;;-0.50;99.90;;;;;;5091209;28;20471;-70
2021/04/06 00:50:44;;;;;;;2.50;2.30;;;-0.50;99.90;;;;;;5089280;28;20454;-69
2021/04/06 00:53:10;;;;;;;5.30;2.23;;;-0.50;99.90;;;;;;5090892;28;20454;-70
2021/04/06 00:55:40;;;;;;;2.07;1.83;;;-0.40;99.90;;;;;;5090923;28;20463;-70
2021/04/06 00:58:14;;;;;;;4.30;2.90;;;-0.40;99.90;;;;;;5090888;28;20168;-70
2021/04/06 01:00:44;;;;;;;3.00;2.17;;;-0.40;99.90;;;;;;5090537;28;20425;-70
2021/04/06 01:03:16;;;;;;;2.47;1.93;;;-0.50;99.90;;;;;;5089600;28;20462;-69
2021/04/06 01:06:00;;;;;;;7.70;2.60;;;-0.50;99.90;;;;;;5090726;28;21136;-69
2021/04/06 01:08:27;;;;;;;4.37;1.97;;;-0.60;99.90;;;;;;5090798;28;20418;-70
2021/04/06 01:10:52;;;;;;;4.03;2.20;;;-0.60;99.90;;;;;;5090543;28;20434;-70
2021/04/06 01:13:23;;;;;;;3.17;2.30;;;-0.50;99.90;;;;;;5089354;28;20481;-70
2021/04/06 01:15:50;;;;;;;5.57;2.77;;;-0.50;99.90;;;;;;5090778;28;20172;-69
2021/04/06 01:18:16;;;;;;;2.80;2.23;;;-0.60;99.90;;;;;;5090729;28;20417;-69
2021/04/06 01:20:42;;;;;;;2.60;1.90;;;-0.60;99.90;;;;;;5090325;28;20801;-69
2021/04/06 01:23:13;;;;;;;2.57;2.07;;;-0.60;99.90;;;;;;5090737;28;20179;-70
2021/04/06 01:25:57;;;;;;;3.90;2.33;;;-0.60;99.90;;;;;;5090177;28;20172;-69
2021/04/06 01:28:27;;;;;;;2.87;2.53;;;-0.60;99.90;;;;;;5090853;28;20919;-69
2021/04/06 01:30:53;;;;;;;3.33;2.20;;;-0.60;99.90;;;;;;5091830;28;20430;-70
2021/04/06 01:33:22;;;;;;;5.23;2.40;;;-0.70;99.90;;;;;;5094728;28;20540;-70
2021/04/06 01:35:51;;;;;;;10.43;2.30;;;-0.70;99.90;;;;;;5094509;28;20421;-69
2021/04/06 01:38:18;;;;;;;3.03;2.23;;;-0.70;99.90;;;;;;5094577;28;20410;-69
2021/04/06 01:40:45;;;;;;;2.87;2.23;;;-0.70;99.90;;;;;;5094238;28;20434;-70
2021/04/06 01:43:13;;;;;;;10.87;3.53;;;-0.80;99.90;;;;;;5094543;28;20530;-70
2021/04/06 01:45:45;;;;;;;3.33;2.33;;;-0.80;99.90;;;;;;5094288;28;20516;-70
2021/04/06 01:48:18;;;;;;;5.90;2.33;;;-0.80;99.90;;;;;;5094434;28;20410;-69
2021/04/06 01:50:50;;;;;;;6.20;2.17;;;-0.80;99.90;;;;;;5093911;28;20437;-70
2021/04/06 01:53:16;;;;;;;4.33;2.10;;;-0.90;99.90;;;;;;5094301;28;20537;-70
2021/04/06 01:56:16;;;;;;;2.27;2.10;;;-1.00;99.90;;;;;;5094305;28;20418;-70
2021/04/06 01:58:43;;;;;;;4.00;2.50;;;-1.00;99.90;;;;;;5094079;28;20518;-69
2021/04/06 02:03:54;;;;;;;2.93;2.40;;;-1.00;99.90;;;;;;5094191;28;20497;-69
2021/04/06 02:06:21;;;;;;;6.07;2.60;;;-1.10;99.90;;;;;;5094010;28;20843;-69
2021/04/06 02:08:51;;;;;;;2.27;2.13;;;-1.20;99.90;;;;;;5093939;28;20489;-69
2021/04/06 02:11:19;;;;;;;3.00;2.50;;;-1.20;99.90;;;;;;5093558;28;20506;-69
2021/04/06 02:13:45;;;;;;;2.73;2.30;;;-1.20;99.90;;;;;;5093820;28;20413;-70
2021/04/06 02:16:11;;;;;;;3.73;2.33;;;-1.20;99.90;;;;;;5093796;28;20402;-69
2021/04/06 02:18:36;;;;;;;4.00;2.67;;;-1.30;99.90;;;;;;5093670;28;20417;-69
2021/04/06 02:21:05;;;;;;;9.30;2.30;;;-1.30;99.90;;;;;;5093584;28;20211;-69
2021/04/06 02:23:37;;;;;;;2.57;2.37;;;-1.30;99.90;;;;;;5093690;28;20251;-69
2021/04/06 02:26:02;;;;;;;7.30;2.50;;;-1.30;99.90;;;;;;5093160;28;20489;-70
2021/04/06 02:28:28;;;;;;;4.00;2.70;;;-1.30;99.90;;;;;;5093634;28;20978;-68
2021/04/06 02:31:02;;;;;;;2.80;1.93;;;-1.30;99.90;;;;;;5093159;28;20192;-68
2021/04/06 02:33:32;;;;;;;2.97;2.67;;;-1.30;99.90;;;;;;5093335;28;20562;-69
2021/04/06 02:36:04;;;;;;;9.10;2.60;;;-1.30;99.90;;;;;;5093363;28;20513;-70
2021/04/06 02:38:41;;;;;;;4.10;2.50;;;-1.30;99.90;;;;;;5093455;28;20415;-69
2021/04/06 02:41:09;;;;;;;2.43;2.23;;;-1.30;99.90;;;;;;5092990;28;20579;-70
2021/04/06 02:43:53;;;;;;;3.20;2.70;;;-1.40;99.90;;;;;;5092404;28;20983;-69
2021/04/06 02:46:21;;;;;;;4.37;2.90;;;-1.40;99.90;;;;;;5093179;28;20826;-70
2021/04/06 02:48:47;;;;;;;3.70;2.47;;;-1.40;99.90;;;;;;5093223;28;20414;-70
2021/04/06 02:51:14;;;;;;;2.97;2.30;;;-1.40;99.90;;;;;;5091382;28;20434;-69
2021/04/06 02:53:40;;;;;;;3.70;2.60;;;-1.40;99.90;;;;;;5093151;28;20441;-69
2021/04/06 02:56:07;;;;;;;3.30;2.40;;;-1.40;99.90;;;;;;5093056;28;20433;-69
2021/04/06 02:58:37;;;;;;;2.30;2.10;;;-1.50;99.90;;;;;;5092992;28;21014;-69
2021/04/06 03:01:13;;;;;;;2.70;1.97;;;-1.50;99.90;;;;;;5092676;28;20442;-69
2021/04/06 03:03:39;;;;;;;3.43;2.40;;;-1.50;99.90;;;;;;5093079;28;20949;-69
2021/04/06 03:06:08;;;;;;;2.30;1.90;;;-1.50;99.90;;;;;;5092926;28;20501;-69
2021/04/06 03:08:35;;;;;;;5.23;3.47;;;-1.50;99.90;;;;;;5092722;28;20442;-69
2021/04/06 03:11:03;;;;;;;2.70;2.50;;;-1.50;99.90;;;;;;5092681;28;20470;-68
2021/04/06 03:13:29;;;;;;;6.90;3.10;;;-1.50;99.90;;;;;;5092717;28;20548;-69
2021/04/06 03:15:56;;;;;;;3.63;3.07;;;-1.50;99.90;;;;;;5092879;28;20445;-69
2021/04/06 03:18:31;;;;;;;4.57;2.67;;;-1.50;99.90;;;;;;5092647;28;20181;-69
2021/04/06 03:21:00;;;;;;;5.57;2.87;;;-1.50;99.90;;;;;;5092190;28;20453;-69
2021/04/06 03:23:26;;;;;;;5.17;2.43;;;-1.50;99.90;;;;;;5092486;28;20425;-68
2021/04/06 03:25:51;;;;;;;5.87;2.60;;;-1.50;99.90;;;;;;5093113;28;20419;-69
2021/04/06 03:28:17;;;;;;;5.70;2.90;;;-1.50;99.90;;;;;;5092709;28;20182;-68
2021/04/06 03:30:44;;;;;;;2.60;2.40;;;-1.50;99.90;;;;;;5090779;28;20574;-69
2021/04/06 03:33:12;;;;;;;5.23;3.20;;;-1.50;99.90;;;;;;5092172;28;20937;-69
2021/04/06 03:35:40;;;;;;;4.47;3.40;;;-1.60;99.90;;;;;;5092194;28;20415;-69
2021/04/06 03:38:09;;;;;;;1.93;1.80;;;-1.50;99.90;;;;;;5092175;28;20417;-69
2021/04/06 03:40:38;;;;;;;2.80;2.27;;;-1.50;99.90;;;;;;5091881;28;20516;-68
2021/04/06 03:43:13;;;;;;;2.53;2.30;;;-1.50;99.90;;;;;;5092381;28;21207;-68
2021/04/06 03:45:57;;;;;;;4.63;2.43;;;-1.50;99.90;;;;;;5091932;28;20465;-69
2021/04/06 03:48:24;;;;;;;8.33;2.87;;;-1.40;99.90;;;;;;5091886;28;21123;-68
2021/04/06 03:50:50;;;;;;;7.43;2.80;;;-1.40;99.90;;;;;;5091663;28;20437;-69
2021/04/06 03:53:16;;;;;;;3.53;2.93;;;-1.50;99.90;;;;;;5091731;28;20465;-69
2021/04/06 03:55:43;;;;;;;5.73;2.67;;;-1.50;99.90;;;;;;5091882;28;20996;-69
2021/04/06 03:58:25;;;;;;;5.73;3.10;;;-1.50;99.90;;;;;;5091833;28;20171;-69
2021/04/06 04:00:50;;;;;;;8.33;3.13;;;-1.50;99.90;;;;;;5091379;28;20508;-69
2021/04/06 04:03:16;;;;;;;7.87;3.73;;;-1.50;99.90;;;;;;5091750;28;20567;-69
2021/04/06 04:05:42;;;;;;;4.50;2.83;;;-1.50;99.90;;;;;;5091795;28;20172;-67
2021/04/06 04:08:08;;;;;;;4.10;3.00;;;-1.50;99.90;;;;;;5091668;28;20176;-69
2021/04/06 04:10:33;;;;;;;5.27;3.13;;;-1.50;99.90;;;;;;5089993;28;20196;-69
2021/04/06 04:12:59;;;;;;;7.23;3.20;;;-1.50;99.90;;;;;;5091523;28;20713;-69
2021/04/06 04:15:24;;;;;;;5.23;4.10;;;-1.50;99.90;;;;;;5091470;28;20538;-69
2021/04/06 04:17:51;;;;;;;4.60;3.50;;;-1.50;99.90;;;;;;5091554;28;20195;-69
2021/04/06 04:20:19;;;;;;;4.60;3.30;;;-1.50;99.90;;;;;;5091295;28;20199;-68
2021/04/06 04:22:46;;;;;;;4.67;2.60;;;-1.40;99.90;;;;;;5091472;28;20453;-70
2021/04/06 04:25:13;;;;;;;6.27;3.40;;;-1.30;99.90;;;;;;5091605;28;20830;-68
2021/04/06 04:27:40;;;;;;;4.80;3.13;;;-1.30;99.90;;;;;;5091307;28;20426;-70
2021/04/06 04:30:07;;;;;;;6.40;4.00;;;-1.20;99.90;;;;;;5091278;28;20449;-69
2021/04/06 04:32:32;;;;;;;3.60;2.73;;;-1.20;99.90;;;;;;5091498;28;20457;-69
2021/04/06 04:34:58;;;;;;;5.83;3.70;;;-1.10;99.90;;;;;;5091580;28;20414;-68
2021/04/06 04:37:23;;;;;;;3.80;2.77;;;-1.10;99.90;;;;;;5091193;28;20180;-69
2021/04/06 04:39:49;;;;;;;4.10;3.30;;;-1.00;99.90;;;;;;5090907;28;20184;-69
2021/04/06 04:42:15;;;;;;;3.30;2.70;;;-1.00;99.90;;;;;;5091112;28;20173;-69
2021/04/06 04:44:40;;;;;;;5.30;3.40;;;-0.90;99.90;;;;;;5091381;28;20188;-69
2021/04/06 04:47:06;;;;;;;7.67;3.30;;;-1.00;99.90;;;;;;5091065;28;20418;-70
2021/04/06 04:49:31;;;;;;;6.73;3.83;;;-1.00;99.90;;;;;;5090761;28;20230;-70
2021/04/06 04:51:57;;;;;;;11.10;3.30;;;-1.00;99.90;;;;;;5090939;28;20793;-71
2021/04/06 04:54:23;;;;;;;4.33;3.43;;;-0.90;99.90;;;;;;5091029;28;20183;-69
2021/04/06 04:56:48;;;;;;;5.43;3.03;;;-0.90;99.90;;;;;;5090972;28;20536;-69
2021/04/06 04:59:14;;;;;;;6.30;4.07;;;-0.90;99.90;;;;;;5090628;28;20527;-69
2021/04/06 05:01:39;;;;;;;6.70;3.70;;;-0.90;99.90;;;;;;5090905;28;20172;-69
2021/04/06 05:04:05;;;;;;;8.93;3.10;;;-0.90;99.90;;;;;;5089538;28;20168;-69
2021/04/06 05:06:31;;;;;;;4.63;3.40;;;-0.90;99.90;;;;;;5090473;28;20168;-69
2021/04/06 05:08:56;;;;;;;4.53;3.73;;;-0.90;99.90;;;;;;5090650;28;20255;-69
2021/04/06 05:11:22;;;;;;;5.70;3.50;;;-0.90;99.90;;;;;;5090658;28;20169;-69
2021/04/06 05:13:49;;;;;;;3.73;3.20;;;-0.90;99.90;;;;;;5090708;28;20350;-70
2021/04/06 05:16:15;;;;;;;5.23;3.77;;;-0.90;99.90;;;;;;5090701;28;20165;-69
2021/04/06 05:18:40;;;;;;;5.20;3.90;;;-0.90;99.90;;;;;;5090694;28;20421;-70
2021/04/06 05:21:06;;;;;;;3.80;3.50;;;-0.90;99.90;;;;;;5090381;28;20220;-70
2021/04/06 05:23:31;;;;;;;4.20;3.33;;;-0.80;99.90;;;;;;5090540;28;20255;-69
2021/04/06 05:25:57;;;;;;;4.37;3.77;;;-0.80;99.90;;;;;;5090304;28;20204;-70
2021/04/06 05:28:22;;;;;;;5.50;3.60;;;-0.70;99.90;;;;;;5090507;28;20609;-69
2021/04/06 05:30:48;;;;;;;6.67;3.60;;;-0.70;99.90;;;;;;5090140;28;20290;-70
2021/04/06 05:33:14;;;;;;;5.07;3.00;;;-0.60;99.90;;;;;;5090394;28;20571;-69
2021/04/06 05:35:39;;;;;;;5.00;3.63;;;-0.50;99.90;;;;;;5090512;28;20179;-69
2021/04/06 05:38:04;;;;;;;8.10;3.27;;;-0.50;99.90;;;;;;5090449;28;20218;-70
2021/04/06 05:40:30;;;;;;;3.67;3.33;;;-0.50;99.90;;;;;;5090061;28;20588;-69
2021/04/06 05:42:58;;;;;;;14.20;3.33;;;-0.40;99.90;;;;;;5090409;28;20696;-70
2021/04/06 05:45:24;;;;;;;8.50;4.10;;;-0.40;99.90;;;;;;5090162;28;20250;-69
2021/04/06 05:47:57;;;;;;;3.90;3.13;;;-0.50;99.90;;;;;;5090408;28;20453;-68
2021/04/06 05:50:22;;;;;;;6.60;3.83;;;-0.40;99.90;;;;;;5090168;28;20430;-68
2021/04/06 05:52:48;;;;;;;8.90;3.67;;;-0.40;99.90;;;;;;5090391;28;21044;-68
2021/04/06 05:55:14;;;;;;;3.63;3.33;;;-0.40;99.90;;;;;;5090583;28;20637;-68
2021/04/06 05:57:40;;;;;;;4.67;3.60;;;-0.40;99.90;;;;;;5090736;28;20190;-68
2021/04/06 06:00:08;;;;;;;6.93;3.67;;;-0.30;99.90;;;;;;5090296;28;20436;-68
2021/04/06 06:02:33;;;;;;;4.27;3.73;;;-0.30;99.90;;;;;;5090529;28;20414;-68
2021/04/06 06:04:59;;;;;;;4.73;3.10;;;-0.20;99.90;;;;;;5090617;28;20911;-68
2021/04/06 06:07:25;;;;;;;7.70;3.67;;;-0.20;99.90;;;;;;5095910;28;20176;-69
2021/04/06 06:09:51;;;;;;;7.03;3.53;;;-0.20;99.90;;;;;;5092917;28;20223;-68
2021/04/06 06:12:19;;;;;;;8.40;3.43;;;-0.10;99.90;;;;;;5090179;28;20458;-69
2021/04/06 06:14:47;;;;;;;4.80;3.03;;;-0.10;99.90;;;;;;5088774;28;20173;-68
2021/04/06 06:17:24;;;;;;;6.27;3.63;;;0.10;99.90;;;;;;5095848;28;20550;-69
2021/04/06 06:19:54;;;;;;;5.07;3.67;;;0.30;99.90;;;;;;5093594;28;21107;-72
2021/04/06 06:22:27;;;;;;;7.77;3.23;;;0.50;99.90;;;;;;5087061;28;20424;-71
2021/04/06 06:25:11;;;;;;;6.17;3.73;;;0.70;99.90;;;;;;5114216;28;20410;-71
2021/04/06 06:27:43;;;;;;;12.00;3.90;;;0.90;99.90;;;;;;5114208;28;20803;-71
2021/04/06 06:30:18;;;;;;;12.37;3.93;;;1.00;99.90;;;;;;5113540;28;21005;-70
2021/04/06 06:32:43;;;;;;;7.30;3.50;;;1.10;99.90;;;;;;5113836;28;20440;-70
2021/04/06 06:35:09;;;;;;;9.30;3.03;;;1.10;99.90;;;;;;5113884;28;20486;-70
2021/04/06 06:37:34;;;;;;;4.40;3.77;;;1.00;99.90;;;;;;5113806;28;20171;-70
2021/04/06 06:40:03;;;;;;;9.00;4.03;;;1.10;99.90;;;;;;5113594;28;20192;-70
2021/04/06 06:42:39;;;;;;;9.30;3.93;;;1.20;99.90;;;;;;5113710;28;20174;-69
2021/04/06 06:45:26;;;;;;;4.73;2.77;;;1.30;99.90;;;;;;5113625;28;20578;-69
2021/04/06 06:47:56;;;;;;;6.53;2.80;;;1.30;99.90;;;;;;5113762;28;20424;-70
2021/04/06 06:50:22;;;;;;;5.97;4.27;;;1.30;99.90;;;;;;5113290;28;20529;-71
2021/04/06 06:52:53;;;;;;;11.93;3.50;;;1.40;99.90;;;;;;5113409;28;20460;-70
2021/04/06 06:55:23;;;;;;;9.03;6.67;;;1.50;99.90;;;;;;5095377;28;20183;-70
2021/04/06 06:57:49;;;;;;;7.50;3.20;;;1.40;99.90;;;;;;5110729;28;20421;-69
2021/04/06 07:00:21;;;;;;;5.53;2.60;;;1.30;99.90;;;;;;5110320;28;20456;-70
2021/04/06 07:02:46;;;;;;;7.00;3.33;;;1.40;99.90;;;;;;5110507;28;20433;-69
2021/04/06 07:05:16;;;;;;;24.57;3.20;;;1.50;99.90;;;;;;5109981;28;21022;-70
2021/04/06 07:08:00;;;;;;;7.47;2.83;;;1.40;99.90;;;;;;5110268;28;20179;-71
2021/04/06 07:10:34;;;;;;;5.17;4.37;;;1.40;99.90;;;;;;5109687;28;21138;-70
2021/04/06 07:13:14;;;;;;;7.47;3.80;;;1.60;99.90;;;;;;5109854;28;20988;-70
2021/04/06 07:15:43;;;;;;;12.40;4.13;;;1.80;99.90;;;;;;5110074;28;20542;-71
2021/04/06 07:18:14;;;;;;;9.93;4.03;;;1.90;99.90;;;;;;5109891;28;20417;-70
2021/04/06 07:20:45;;;;;;;5.77;3.10;;;1.90;99.90;;;;;;5107982;28;20556;-70
2021/04/06 07:23:22;;;;;;;6.43;3.57;;;1.80;99.90;;;;;;5109783;28;20977;-70
2021/04/06 07:25:48;;;;;;;4.43;3.40;;;1.70;99.90;;;;;;5110097;28;20460;-70
2021/04/06 07:28:17;;;;;;;4.60;3.33;;;1.80;99.90;;;;;;5109564;28;20795;-71
2021/04/06 07:30:44;;;;;;;5.20;3.60;;;1.90;99.90;;;;;;5109445;28;20445;-70
2021/04/06 07:33:10;;;;;;;6.60;3.17;;;1.90;99.90;;;;;;5110027;28;20437;-70
2021/04/06 07:35:36;;;;;;;8.70;3.90;;;2.10;99.90;;;;;;5110208;28;20470;-70
2021/04/06 07:38:02;;;;;;;5.10;3.20;;;2.30;99.90;;;;;;5108557;28;20429;-70
2021/04/06 07:40:32;;;;;;;5.37;3.47;;;2.30;99.90;;;;;;5107865;28;20954;-69
2021/04/06 07:42:58;;;;;;;9.40;3.70;;;2.50;99.90;;;;;;5108278;28;20179;-71
2021/04/06 07:45:23;;;;;;;9.17;3.80;;;2.80;99.90;;;;;;5109382;28;20981;-70
2021/04/06 07:47:50;;;;;;;6.67;3.60;;;2.90;99.90;;;;;;5109317;28;20527;-70
2021/04/06 07:50:38;;;;;;;8.83;2.80;;;3.30;99.90;;;;;;5108950;28;20278;-70
2021/04/06 07:53:25;;;;;;;8.23;3.60;;;3.40;99.90;;;;;;5109140;28;20567;-70
2021/04/06 07:55:52;;;;;;;9.27;3.63;;;3.50;99.90;;;;;;5109033;28;20488;-71
2021/04/06 07:58:46;;;;;;;10.20;4.50;;;3.70;99.90;;;;;;5109569;28;20417;-70
2021/04/06 08:01:16;;;;;;;5.70;3.03;;;3.70;99.90;;;;;;5108785;28;20441;-70
2021/04/06 08:03:54;;;;;;;5.67;3.30;;;3.70;99.90;;;;;;5109051;28;20440;-71
2021/04/06 08:06:22;;;;;;;9.10;2.80;;;3.60;99.90;;;;;;5109023;28;20417;-70
2021/04/06 08:08:47;;;;;;;11.43;3.60;;;3.70;99.90;;;;;;5108912;28;20421;-69
2021/04/06 08:11:13;;;;;;;8.70;2.57;;;4.00;99.90;;;;;;5108524;28;20448;-70
2021/04/06 08:13:41;;;;;;;4.13;2.87;;;4.10;99.90;;;;;;5108935;28;20244;-70
2021/04/06 08:16:14;;;;;;;4.97;3.00;;;4.20;99.90;;;;;;5108835;28;20252;-69
2021/04/06 08:18:50;;;;;;;9.00;2.70;;;4.30;99.90;;;;;;5108727;28;20413;-70
2021/04/06 08:21:17;;;;;;;7.80;3.23;;;4.30;99.90;;;;;;5108270;28;20433;-69
2021/04/06 08:23:45;;;;;;;4.30;3.30;;;4.30;99.90;;;;;;5108775;28;20414;-71
2021/04/06 08:26:31;;;;;;;6.87;2.97;;;4.10;99.90;;;;;;5108870;28;20421;-69
2021/04/06 08:29:23;;;;;;;10.83;4.50;;;3.90;99.90;;;;;;5108412;28;20523;-70
2021/04/06 08:32:16;;;;;;;7.17;3.87;;;4.00;99.90;;;;;;5108458;28;20456;-69
2021/04/06 08:34:50;;;;;;;5.43;3.40;;;4.20;99.90;;;;;;5108482;28;20424;-69
2021/04/06 08:37:17;;;;;;;5.60;2.80;;;4.50;99.90;;;;;;5108456;28;20417;-69
2021/04/06 08:39:44;;;;;;;10.03;3.40;;;4.60;99.90;;;;;;5107863;28;20483;-69
2021/04/06 08:42:14;;;;;;;6.27;2.83;;;4.60;99.90;;;;;;5108300;28;20417;-69
2021/04/06 08:44:40;;;;;;;5.97;3.00;;;4.00;99.90;;;;;;5108609;28;20464;-69
2021/04/06 08:47:06;;;;;;;8.43;3.00;;;3.70;99.90;;;;;;5108683;28;20460;-69
2021/04/06 08:49:40;;;;;;;6.47;2.97;;;3.60;99.90;;;;;;5108198;28;20198;-69
2021/04/06 08:52:11;;;;;;;4.70;3.10;;;3.50;99.90;;;;;;5108389;28;20444;-69
2021/04/06 08:54:37;;;;;;;5.43;2.50;;;3.50;99.90;;;;;;5108497;28;20460;-69
2021/04/06 08:57:05;;;;;;;4.40;2.70;;;3.50;99.90;;;;;;5108569;28;20445;-70
2021/04/06 08:59:36;;;;;;;11.33;3.60;;;3.40;99.90;;;;;;5106453;28;20226;-68
2021/04/06 09:02:10;;;;;;;8.30;3.00;;;3.50;99.90;;;;;;5108146;28;20508;-69
2021/04/06 09:04:57;;;;;;;3.20;2.17;;;3.80;99.90;;;;;;5108140;28;20412;-69
2021/04/06 09:07:25;;;;;;;5.17;2.97;;;4.50;99.90;;;;;;5107382;28;20479;-69
2021/04/06 09:09:58;;;;;;;2.63;2.27;;;4.90;99.90;;;;;;5107654;28;20987;-69
2021/04/06 09:12:33;;;;;;;6.00;3.20;;;5.30;99.90;;;;;;5107872;28;20460;-68
2021/04/06 09:14:59;;;;;;;9.53;2.83;;;5.20;99.90;;;;;;5107920;28;20493;-68
2021/04/06 09:17:31;;;;;;;3.57;3.03;;;4.90;99.90;;;;;;5107857;28;20985;-69
2021/04/06 09:19:58;;;;;;;6.70;3.90;;;4.80;99.90;;;;;;5107686;28;21263;-69
2021/04/06 09:22:24;;;;;;;5.13;2.53;;;4.70;99.90;;;;;;5106511;28;20427;-69
2021/04/06 09:24:49;;;;;;;10.33;2.83;;;4.80;99.90;;;;;;5111796;28;20507;-68
2021/04/06 09:27:15;;;;;;;2.77;2.07;;;5.60;99.90;;;;;;5128369;28;20270;-68
2021/04/06 09:29:47;;;;;;;6.13;2.50;;;6.50;99.90;;;;;;5128260;28;20233;-69
2021/04/06 09:32:16;;;;;;;5.40;3.30;;;7.60;99.90;;;;;;5128229;28;20513;-69
2021/04/06 09:34:45;;;;;;;3.47;2.90;;;8.30;99.90;;;;;;5128556;28;20725;-70
2021/04/06 09:37:13;;;;;;;4.60;2.70;;;7.80;99.90;;;;;;5128424;28;20413;-70
2021/04/06 09:39:42;;;;;;;5.17;2.63;;;6.90;99.90;;;;;;5128222;28;20428;-69
2021/04/06 09:42:09;;;;;;;3.93;2.47;;;6.70;99.90;;;;;;5128549;28;20427;-68
2021/04/06 09:44:38;;;;;;;3.10;2.23;;;5.90;99.90;;;;;;5126895;28;20443;-69
2021/04/06 09:47:15;;;;;;;3.90;2.80;;;5.60;99.90;;;;;;5128328;28;20420;-69
2021/04/06 09:49:44;;;;;;;3.50;2.47;;;5.60;99.90;;;;;;5113344;28;20993;-68
2021/04/06 09:52:16;;;;;;;4.80;3.10;;;5.80;99.90;;;;;;5109621;28;20544;-68
2021/04/06 09:54:55;;;;;;;7.10;2.87;;;5.80;99.90;;;;;;5111613;28;20497;-70
2021/04/06 09:57:25;;;;;;;5.40;2.60;;;5.90;99.90;;;;;;5111600;28;20409;-70
2021/04/06 09:59:56;;;;;;;5.23;3.40;;;6.00;99.90;;;;;;5111383;28;20538;-69
2021/04/06 10:02:28;;;;;;;4.73;2.33;;;6.50;99.90;;;;;;5111484;28;20409;-69
2021/04/06 10:04:54;;;;;;;5.20;2.33;;;6.70;99.90;;;;;;5111502;28;20500;-69
2021/04/06 10:07:26;;;;;;;2.43;2.10;;;6.90;99.90;;;;;;5111266;28;20582;-69
2021/04/06 10:09:55;;;;;;;3.20;2.17;;;6.90;99.90;;;;;;5111061;28;20196;-68
2021/04/06 10:12:23;;;;;;;3.43;1.93;;;7.00;99.90;;;;;;5111203;28;20457;-69
2021/04/06 10:14:50;;;;;;;7.03;2.50;;;6.30;99.90;;;;;;5111161;27;20831;-69
2021/04/06 10:17:38;;;;;;;4.73;3.00;;;5.90;99.90;;;;;;5111083;28;20417;-69
2021/04/06 10:20:20;;;;;;;5.47;2.60;;;5.30;99.90;;;;;;5110578;28;20505;-70
2021/04/06 10:22:52;;;;;;;4.00;2.43;;;5.30;99.90;;;;;;5110931;28;20428;-69
2021/04/06 10:25:32;;;;;;;6.57;2.50;;;5.90;99.90;;;;;;5111109;28;20428;-69
2021/04/06 10:28:00;;;;;;;4.73;2.20;;;6.50;99.90;;;;;;5110968;28;20428;-68
2021/04/06 10:30:42;;;;;;;2.90;2.33;;;6.70;99.90;;;;;;5110666;28;20444;-68
2021/04/06 10:33:10;;;;;;;6.83;2.13;;;7.50;99.90;;;;;;5110955;28;20488;-68
2021/04/06 10:35:43;;;;;;;4.30;2.13;;;8.40;99.90;;;;;;5110661;28;20501;-69
2021/04/06 10:38:21;;;;;;;4.10;2.53;;;9.70;99.10;;;;;;5110613;28;20420;-70
2021/04/06 10:40:47;;;;;;;3.60;2.43;;;9.10;95.40;;;;;;5110193;28;20448;-69
2021/04/06 10:43:16;;;;;;;3.73;2.10;;;8.30;96.90;;;;;;5110578;28;20953;-69
2021/04/06 10:45:46;;;;;;;8.00;2.83;;;8.10;98.50;;;;;;5110441;28;20441;-69
2021/04/06 10:48:18;;;;;;;9.53;2.60;;;8.50;98.10;;;;;;5110457;28;20508;-69
2021/04/06 10:51:21;;;;;;;3.30;2.40;;;8.80;97.10;;;;;;5110114;28;20441;-68
2021/04/06 10:53:48;;;;;;;6.00;3.43;;;8.70;98.30;;;;;;5099973;28;20499;-73
2021/04/06 10:56:17;;;;;;;3.10;2.70;;;8.10;97.60;;;;;;5112673;28;20466;-69
2021/04/06 10:58:56;;;;;;;2.77;2.30;;;8.70;98.40;;;;;;5112876;28;20425;-69
2021/04/06 11:01:25;;;;;;;2.70;2.30;;;10.40;95.80;;;;;;5112595;28;20504;-69
2021/04/06 11:03:59;;;;;;;4.60;2.70;;;13.40;90.70;;;;;;5112441;28;20498;-68
2021/04/06 11:06:36;;;;;;;4.83;2.70;;;13.10;89.40;;;;;;5113325;28;20417;-69
2021/04/06 11:09:20;;;;;;;5.70;2.40;;;12.60;88.50;;;;;;5113094;28;20440;-70
2021/04/06 11:11:48;;;;;;;3.90;2.40;;;12.50;85.90;;;;;;5113246;28;20481;-70
2021/04/06 11:14:20;;;;;;;5.33;3.57;;;12.40;83.80;;;;;;5113216;28;20452;-68
2021/04/06 11:16:46;;;;;;;3.93;2.60;;;13.00;82.50;;;;;;5113433;28;20472;-68
2021/04/06 11:19:13;;;;;;;5.17;2.60;;;12.20;81.10;;;;;;5113173;28;20445;-68
2021/04/06 11:21:51;;;;;;;6.27;4.97;;;13.10;78.80;;;;;;5113892;28;20428;-68
2021/04/06 11:24:19;;;;;;;4.80;3.07;;;13.40;76.80;;;;;;5113432;28;20930;-69
2021/04/06 11:26:46;;;;;;;3.67;3.13;;;12.70;74.00;;;;;;5111498;28;20785;-70
2021/04/06 11:29:14;;;;;;;9.53;2.93;;;12.30;76.90;;;;;;5112863;28;20444;-68
2021/04/06 11:31:41;;;;;;;7.33;2.77;;;12.90;76.10;;;;;;5111559;28;20422;-68
2021/04/06 11:34:08;;;;;;;5.33;2.50;;;12.30;76.60;;;;;;5112774;28;20445;-68
2021/04/06 11:36:35;;;;;;;3.70;2.63;;;11.60;75.10;;;;;;5112669;28;20424;-68
2021/04/06 11:39:07;;;;;;;3.70;2.10;;;11.60;78.40;;;;;;5112397;28;20500;-68
2021/04/06 11:41:33;;;;;;;5.13;2.80;;;12.60;78.30;;;;;;5112988;28;20414;-68
2021/04/06 11:43:59;;;;;;;2.57;2.30;;;11.60;76.00;;;;;;5112504;28;20421;-68
2021/04/06 11:46:25;;;;;;;4.57;2.57;;;10.90;78.10;;;;;;5112414;28;20444;-70
2021/04/06 11:48:50;;;;;;;2.67;2.20;;;11.00;76.20;;;;;;5106594;27;20253;-71
2021/04/06 11:51:16;;;;;;;2.97;2.20;;;10.70;74.20;;;;;;5112090;28;20195;-70
2021/04/06 11:53:43;;;;;;;2.97;2.70;;;9.50;78.40;;;;;;5112335;28;20572;-71
2021/04/06 11:56:09;;;;;;;4.47;2.60;;;9.40;83.30;;;;;;5112502;28;20474;-71
2021/04/06 11:58:34;;;;;;;2.53;2.00;;;10.80;82.80;;;;;;5112437;28;20456;-69
2021/04/06 12:01:00;;;;;;;4.17;2.63;;;12.00;73.60;;;;;;5110994;28;20437;-69
2021/04/06 12:03:26;;;;;;;5.00;2.57;;;10.80;74.80;;;;;;5112387;28;20770;-70
2021/04/06 12:05:52;;;;;;;4.97;2.60;;;10.10;76.30;;;;;;5112345;28;20171;-69
2021/04/06 12:08:17;;;;;;;3.27;2.80;;;9.20;77.60;;;;;;5112327;28;20229;-68
2021/04/06 12:10:44;;;;;;;4.40;2.70;;;10.00;76.40;;;;;;5111910;28;20606;-69
2021/04/06 12:13:11;;;;;;;3.50;2.10;;;12.00;71.20;;;;;;5112119;28;20768;-69
2021/04/06 12:15:37;;;;;;;3.17;2.50;;;13.70;66.60;;;;;;5111218;28;20448;-69
2021/04/06 12:18:03;;;;;;;3.00;2.67;;;14.00;62.60;;;;;;5112020;28;20445;-71
2021/04/06 12:20:29;;;;;;;3.90;2.57;;;12.90;61.20;;;;;;5111779;28;21008;-68
2021/04/06 12:22:54;;;;;;;2.90;2.50;;;12.90;62.70;;;;;;5111805;28;20486;-69
2021/04/06 12:25:20;;;;;;;3.93;2.20;;;14.30;61.10;;;;;;5111978;28;20175;-69
2021/04/06 12:27:46;;;;;;;3.37;2.77;;;15.70;59.60;;;;;;5111776;28;20183;-70
2021/04/06 12:30:12;;;;;;;4.90;2.67;;;16.50;56.90;;;;;;5111167;28;20675;-70
2021/04/06 12:32:38;;;;;;;2.97;2.43;;;16.80;54.20;;;;;;5111554;28;20441;-70
2021/04/06 12:35:04;;;;;;;2.13;1.80;;;16.50;52.60;;;;;;5111527;28;20417;-69
2021/04/06 12:37:32;;;;;;;2.93;2.13;;;15.30;51.50;;;;;;5111532;28;20198;-70
2021/04/06 12:39:58;;;;;;;5.27;2.60;;;14.50;53.30;;;;;;5111241;28;20942;-69
2021/04/06 12:42:24;;;;;;;3.33;1.90;;;14.00;53.40;;;;;;5111541;28;20832;-69
2021/04/06 12:44:49;;;;;;;5.20;2.30;;;14.90;53.90;;;;;;5111413;28;20452;-70
2021/04/06 12:47:16;;;;;;;3.50;1.93;;;15.50;51.30;;;;;;5111653;28;20167;-70
2021/04/06 12:49:41;;;;;;;4.97;2.90;;;15.90;50.30;;;;;;5111137;28;20668;-71
2021/04/06 12:52:07;;;;;;;3.17;1.83;;;17.30;51.10;;;;;;5111301;28;20453;-69
2021/04/06 12:54:32;;;;;;;4.37;2.53;;;15.70;47.30;;;;;;5111378;28;20175;-70
2021/04/06 12:56:58;;;;;;;3.00;2.30;;;13.40;49.20;;;;;;5111538;28;20603;-70
2021/04/06 12:59:23;;;;;;;3.13;2.20;;;11.90;52.50;;;;;;5111023;28;20668;-70
2021/04/06 13:01:49;;;;;;;4.27;1.70;;;11.60;53.80;;;;;;5111334;28;20267;-69
2021/04/06 13:04:14;;;;;;;3.03;2.27;;;14.00;51.80;;;;;;5111689;28;20176;-69